Time;durP1;ratioP1;P1;durP2;ratioP2;P2;SDS_P1;SDS_P2;PMS_P1;PMS_P2;Temp;Humidity;BMP_temperature;BMP_pressure;BME280_temperature;BME280_humidity;BME280_pressure;Samples;Min_cycle;Max_cycle;Signal;HPM_P1;HPM_P2
2023/06/12 07:01:19;;;;;;;1.33;1.33;;;30.70;99.90;34.40;101465.00;;;;6282217;22;20284;-70
2023/06/12 07:03:45;;;;;;;0.10;0.10;;;30.50;99.90;34.60;101466.00;;;;6308698;22;20168;-69
2023/06/12 07:06:11;;;;;;;5.90;1.70;;;30.50;99.90;34.50;101475.00;;;;6282235;22;20133;-70
2023/06/12 07:08:37;;;;;;;0.10;0.10;;;30.90;99.90;34.40;101463.00;;;;6309240;22;20141;-70
2023/06/12 07:11:13;;;;;;;0.32;0.22;;;31.00;99.90;34.10;101474.00;;;;6282312;22;20231;-70
2023/06/12 07:13:40;;;;;;;0.17;0.17;;;30.80;99.90;33.80;101474.00;;;;6308060;22;20380;-70
2023/06/12 07:16:48;;;;;;;1.85;1.60;;;30.90;99.90;32.30;101484.00;;;;6281947;22;20234;-69
2023/06/12 07:19:13;;;;;;;0.10;0.10;;;29.80;99.90;35.10;101459.00;;;;6256564;22;20210;-69
2023/06/12 07:21:39;;;;;;;0.20;0.20;;;30.60;99.90;35.60;101433.00;;;;6281859;22;20156;-69
2023/06/12 07:24:45;;;;;;;0.60;0.60;;;31.40;99.90;35.70;101444.00;;;;6308368;22;20396;-69
2023/06/12 07:27:34;;;;;;;0.47;0.47;;;31.90;99.90;33.90;101437.00;;;;6282106;22;20869;-69
2023/06/12 07:30:12;;;;;;;0.82;0.82;;;31.50;99.90;34.80;101481.00;;;;6307814;22;20499;-69
2023/06/12 07:32:40;;;;;;;0.90;0.82;;;31.50;99.90;36.50;101473.00;;;;6281905;22;20145;-69
2023/06/12 07:35:15;;;;;;;0.10;0.10;;;32.10;99.90;38.20;101454.00;;;;6308813;22;20144;-76
2023/06/12 07:37:42;;;;;;;1.25;1.25;;;33.30;99.40;34.60;101489.00;;;;6282054;22;20201;-69
2023/06/12 07:40:09;;;;;;;0.13;0.13;;;33.00;98.40;34.90;101477.00;;;;6281672;22;20631;-69
2023/06/12 07:42:36;;;;;;;0.40;0.17;;;32.00;99.40;35.80;101480.00;;;;6280689;22;20172;-69
2023/06/12 07:45:05;;;;;;;0.15;0.15;;;32.70;98.10;37.50;101484.00;;;;6256037;22;20541;-69
2023/06/12 07:47:31;;;;;;;1.25;0.80;;;33.30;97.50;36.70;101473.00;;;;6307560;22;20157;-69
2023/06/12 07:50:03;;;;;;;0.60;0.57;;;33.60;96.40;35.60;101482.00;;;;6255711;22;20160;-69
2023/06/12 07:52:30;;;;;;;0.65;0.65;;;32.90;96.30;37.20;101469.00;;;;6279982;22;20160;-69
2023/06/12 07:54:57;;;;;;;1.58;1.48;;;33.20;95.70;33.50;101443.00;;;;6281191;22;20133;-69
2023/06/12 07:57:24;;;;;;;1.27;0.80;;;31.90;96.70;33.20;101466.00;;;;6282161;22;20137;-69
2023/06/12 07:59:50;;;;;;;0.30;0.30;;;31.30;96.50;35.60;101470.00;;;;6276135;22;20196;-69
2023/06/12 08:02:16;;;;;;;0.30;0.30;;;31.80;97.60;37.60;101454.00;;;;6277161;22;20172;-69
2023/06/12 08:04:42;;;;;;;3.10;0.95;;;33.00;95.90;34.40;101478.00;;;;6276168;22;20163;-69
2023/06/12 08:07:13;;;;;;;7.75;4.32;;;32.50;95.30;35.40;101472.00;;;;6276823;22;20141;-69
2023/06/12 08:09:43;;;;;;;1.63;1.52;;;32.10;96.20;35.60;101455.00;;;;6274817;22;20365;-69
2023/06/12 08:12:11;;;;;;;0.57;0.57;;;32.20;95.00;34.70;101470.00;;;;6276503;22;20774;-69
2023/06/12 08:14:38;;;;;;;0.10;0.10;;;31.90;93.70;36.60;101464.00;;;;6276472;22;20144;-69
2023/06/12 08:17:13;;;;;;;1.08;0.90;;;32.30;94.50;36.20;101466.00;;;;6277776;22;20198;-70
2023/06/12 08:19:41;;;;;;;1.75;1.30;;;32.60;94.20;37.10;101474.00;;;;6276727;22;20490;-69
2023/06/12 08:22:07;;;;;;;0.70;0.45;;;33.00;93.40;36.70;101474.00;;;;6276029;22;20599;-69
2023/06/12 08:24:35;;;;;;;0.47;0.47;;;33.20;93.00;36.20;101472.00;;;;6277780;22;20187;-69
2023/06/12 08:27:08;;;;;;;1.00;1.00;;;32.80;92.00;36.30;101440.00;;;;6250443;22;20153;-69
2023/06/12 08:29:35;;;;;;;4.00;1.17;;;33.10;92.00;36.80;101428.00;;;;6275865;22;20597;-69
2023/06/12 08:32:01;;;;;;;7.32;4.55;;;33.00;91.60;36.70;101465.00;;;;6277259;22;20216;-71
2023/06/12 08:34:32;;;;;;;0.75;0.75;;;33.40;90.80;37.50;101433.00;;;;6277985;22;20175;-70
2023/06/12 08:36:58;;;;;;;1.60;1.50;;;33.30;90.80;34.30;101469.00;;;;6277733;22;20145;-69
2023/06/12 08:39:24;;;;;;;0.63;0.35;;;32.50;87.50;35.70;101457.00;;;;6277463;22;20596;-70
2023/06/12 08:42:08;;;;;;;0.28;0.28;;;32.50;88.70;37.50;101416.00;;;;6275678;22;20165;-70
2023/06/12 08:44:44;;;;;;;3.67;0.57;;;33.40;88.50;35.30;101462.00;;;;6249928;22;20164;-69
2023/06/12 08:47:15;;;;;;;2.80;1.23;;;32.60;87.90;35.20;101453.00;;;;6275917;22;20168;-70
2023/06/12 08:49:42;;;;;;;0.22;0.22;;;32.50;85.60;35.30;101447.00;;;;6277155;22;20521;-69
2023/06/12 08:52:12;;;;;;;1.65;0.90;;;32.00;86.30;34.60;101450.00;;;;6250292;22;20565;-69
2023/06/12 08:54:43;;;;;;;0.45;0.45;;;32.30;85.70;35.00;101423.00;;;;6276114;22;20191;-69
2023/06/12 08:57:13;;;;;;;1.80;1.70;;;32.10;86.20;33.10;101454.00;;;;6275673;22;20161;-69
2023/06/12 08:59:38;;;;;;;2.83;2.63;;;31.50;84.60;34.90;101456.00;;;;6275735;22;20271;-69
2023/06/12 09:02:15;;;;;;;0.85;0.75;;;31.60;87.10;36.10;101444.00;;;;6276540;22;20169;-69
2023/06/12 09:05:30;;;;;;;0.57;0.57;;;32.40;85.40;35.40;101442.00;;;;6275820;22;20160;-69
2023/06/12 09:08:06;;;;;;;0.63;0.35;;;32.50;84.70;35.30;101441.00;;;;6277210;22;20557;-69
2023/06/12 09:10:38;;;;;;;0.43;0.35;;;32.00;87.70;35.00;101447.00;;;;6275993;22;20137;-69
2023/06/12 09:13:09;;;;;;;2.17;1.85;;;32.00;86.60;34.40;101449.00;;;;6275784;22;20176;-69
2023/06/12 09:15:38;;;;;;;0.68;0.68;;;32.40;86.40;35.70;101437.00;;;;6249532;22;20164;-69
2023/06/12 09:18:10;;;;;;;0.25;0.25;;;32.70;85.50;37.20;101429.00;;;;6275292;22;20157;-69
2023/06/12 09:20:39;;;;;;;0.57;0.57;;;33.30;87.60;35.70;101445.00;;;;6275682;22;20243;-69
2023/06/12 09:23:05;;;;;;;0.20;0.20;;;33.20;85.40;36.40;101438.00;;;;6275286;22;20239;-69
2023/06/12 09:25:35;;;;;;;0.57;0.57;;;33.20;84.60;34.80;101448.00;;;;6276006;22;20153;-68
2023/06/12 09:28:05;;;;;;;0.68;0.68;;;32.60;82.80;35.80;101448.00;;;;6276957;22;20640;-69
2023/06/12 09:31:00;;;;;;;0.20;0.20;;;32.60;83.10;36.10;101430.00;;;;6275100;22;20171;-69
2023/06/12 09:33:31;;;;;;;0.32;0.32;;;32.80;83.50;36.50;101427.00;;;;6264796;22;20165;-69
2023/06/12 09:36:00;;;;;;;1.27;1.17;;;33.10;82.50;36.50;101429.00;;;;6275418;22;20140;-69
2023/06/12 09:38:37;;;;;;;0.40;0.40;;;33.10;80.20;34.90;101435.00;;;;6275423;22;20144;-70
2023/06/12 09:41:05;;;;;;;0.63;0.63;;;32.50;80.40;35.70;101432.00;;;;6275240;22;20188;-69
2023/06/12 09:43:34;;;;;;;1.15;1.05;;;32.70;80.70;35.30;101455.00;;;;6275113;22;20176;-68
2023/06/12 09:46:08;;;;;;;0.40;0.40;;;32.10;83.30;34.70;101456.00;;;;6274530;22;20172;-69
2023/06/12 09:48:39;;;;;;;0.30;0.30;;;31.70;83.00;36.90;101445.00;;;;6249972;22;20165;-67
2023/06/12 09:51:08;;;;;;;2.22;1.67;;;32.90;83.00;35.10;101465.00;;;;6274822;22;20149;-70
2023/06/12 09:53:39;;;;;;;2.08;1.98;;;32.90;81.30;38.00;101446.00;;;;6267157;22;20225;-69
2023/06/12 09:56:30;;;;;;;0.57;0.57;;;33.70;80.20;37.70;101452.00;;;;6275618;22;20174;-71
2023/06/12 09:59:35;;;;;;;1.27;1.10;;;34.30;76.40;34.90;101472.00;;;;6276239;22;20149;-70
2023/06/12 10:02:23;;;;;;;0.68;0.38;;;33.30;76.40;36.70;101424.00;;;;6248861;22;20177;-70
2023/06/12 10:05:07;;;;;;;0.10;0.10;;;33.20;77.30;37.40;101454.00;;;;6249473;22;20153;-71
2023/06/12 10:07:59;;;;;;;1.02;0.85;;;33.80;78.60;37.40;101419.00;;;;6276576;22;20145;-71
2023/06/12 10:10:48;;;;;;;0.73;0.68;;;33.90;78.30;37.20;101454.00;;;;6249177;22;20148;-69
2023/06/12 10:13:19;;;;;;;1.15;0.85;;;33.90;78.30;37.80;101444.00;;;;6248341;22;20228;-70
2023/06/12 10:16:05;;;;;;;0.80;0.80;;;34.20;76.80;38.00;101447.00;;;;6276850;22;20173;-71
2023/06/12 10:18:35;;;;;;;0.88;0.70;;;34.10;76.40;36.80;101452.00;;;;6222712;22;20843;-71
2023/06/12 10:33:55;;;;;;;0.75;0.75;;;33.30;77.70;35.60;101327.00;;;;5098742;27;1302412;-72
2023/06/12 10:36:43;;;;;;;1.00;0.90;;;33.20;75.20;36.80;101433.00;;;;5102254;28;20636;-72
2023/06/12 10:39:52;;;;;;;0.10;0.10;;;33.70;76.30;35.90;101430.00;;;;5099464;28;20661;-72
2023/06/12 10:42:18;;;;;;;0.10;0.10;;;33.10;75.40;39.50;101405.00;;;;5105644;28;20187;-72
2023/06/12 10:44:48;;;;;;;0.10;0.10;;;34.80;77.50;39.60;101416.00;;;;5092248;28;20183;-73
2023/06/12 10:47:23;;;;;;;0.80;0.75;;;35.60;74.90;40.10;101420.00;;;;5088011;28;20250;-73
2023/06/12 10:50:09;;;;;;;0.63;0.52;;;36.00;75.20;39.50;101407.00;;;;5098276;28;20525;-73
2023/06/12 10:52:56;;;;;;;0.45;0.45;;;36.10;73.50;38.40;101423.00;;;;5093781;28;20199;-74
2023/06/12 10:55:31;;;;;;;0.57;0.57;;;35.10;74.20;39.10;101409.00;;;;5094823;28;20536;-72
2023/06/12 10:58:03;;;;;;;0.98;0.85;;;35.40;74.70;38.10;101412.00;;;;5110897;28;20175;-73
2023/06/12 11:00:56;;;;;;;0.50;0.50;;;35.50;73.10;38.50;101400.00;;;;5105845;28;20195;-73
2023/06/12 11:03:50;;;;;;;2.47;1.00;;;35.30;72.40;36.30;101427.00;;;;5118546;28;20210;-72
2023/06/12 11:06:47;;;;;;;3.10;1.23;;;34.30;72.50;34.60;101415.00;;;;5087739;28;20228;-72
2023/06/12 11:09:25;;;;;;;0.60;0.60;;;33.90;72.40;36.00;101402.00;;;;5102548;28;20203;-72
2023/06/12 11:11:53;;;;;;;0.10;0.10;;;33.30;74.00;38.30;101394.00;;;;5105536;28;20231;-72
2023/06/12 11:14:53;;;;;;;0.32;0.32;;;34.40;74.00;40.80;101380.00;;;;5095924;28;20546;-72
2023/06/12 11:17:31;;;;;;;2.78;2.50;;;36.10;73.00;38.40;101370.00;;;;5094594;28;20263;-72
2023/06/12 11:20:14;;;;;;;0.20;0.20;;;36.50;71.60;38.10;101395.00;;;;5108901;28;20175;-72
2023/06/12 11:22:58;;;;;;;0.08;0.08;;;35.50;72.80;39.80;101388.00;;;;5092326;28;20626;-72
2023/06/12 11:25:25;;;;;;;0.17;0.17;;;36.40;72.40;41.30;101376.00;;;;5075568;28;20215;-73
2023/06/12 11:27:59;;;;;;;0.30;0.30;;;37.30;71.20;41.60;101355.00;;;;5075113;28;20191;-73
2023/06/12 11:30:32;;;;;;;1.67;1.58;;;37.50;71.10;39.20;101394.00;;;;5093905;28;20190;-73
2023/06/12 11:33:31;;;;;;;0.13;0.13;;;37.70;70.30;39.60;101391.00;;;;5099459;28;20212;-73
2023/06/12 11:36:00;;;;;;;0.10;0.10;;;37.20;70.20;39.90;101393.00;;;;5091901;28;20181;-73
2023/06/12 11:38:35;;;;;;;1.85;1.02;;;36.60;69.90;40.50;101380.00;;;;5110443;28;20184;-73
2023/06/12 11:41:21;;;;;;;1.25;0.98;;;37.20;69.80;36.40;101381.00;;;;5079046;28;20186;-72
2023/06/12 11:43:50;;;;;;;1.33;1.23;;;35.90;68.60;36.80;101393.00;;;;5074112;28;20588;-72
2023/06/12 11:46:17;;;;;;;1.25;1.15;;;35.10;70.00;38.90;101387.00;;;;5098277;28;20185;-73
2023/06/12 11:48:43;;;;;;;0.43;0.43;;;35.40;70.70;39.30;101356.00;;;;5079587;28;20642;-72
2023/06/12 11:51:34;;;;;;;0.40;0.40;;;35.60;68.20;36.80;101398.00;;;;5099903;28;20276;-73
2023/06/12 11:54:56;;;;;;;0.63;0.63;;;34.50;70.40;36.70;101393.00;;;;5080335;28;20240;-73
2023/06/12 11:57:47;;;;;;;0.15;0.15;;;33.80;70.00;38.30;101374.00;;;;5092630;28;20746;-73
2023/06/12 12:00:51;;;;;;;0.30;0.30;;;34.10;70.70;39.60;101379.00;;;;5085219;28;20207;-73
2023/06/12 12:03:40;;;;;;;1.83;1.73;;;35.30;70.40;35.50;101388.00;;;;5093433;28;20222;-73
2023/06/12 12:06:54;;;;;;;1.38;1.25;;;33.30;68.30;35.70;101351.00;;;;5093307;28;20249;-73
2023/06/12 12:09:46;;;;;;;0.45;0.45;;;32.90;68.40;37.30;101339.00;;;;5072039;28;20268;-73
2023/06/12 12:12:24;;;;;;;0.52;0.52;;;33.30;70.30;36.10;101371.00;;;;5102148;28;20217;-73
2023/06/12 12:15:14;;;;;;;0.30;0.30;;;33.30;69.40;36.90;101335.00;;;;5109651;28;20495;-73
2023/06/12 12:18:05;;;;;;;0.63;0.63;;;33.10;70.70;37.40;101364.00;;;;5094243;28;20180;-73
2023/06/12 12:20:52;;;;;;;0.73;0.70;;;33.50;72.30;37.20;101360.00;;;;5078066;28;20212;-73
2023/06/12 12:23:26;;;;;;;2.25;2.05;;;33.80;71.70;36.10;101373.00;;;;5071326;28;20655;-74
2023/06/12 12:25:54;;;;;;;0.80;0.55;;;33.10;71.00;35.20;101377.00;;;;5080125;28;20176;-73
2023/06/12 12:28:58;;;;;;;2.35;2.15;;;32.40;72.40;36.80;101360.00;;;;5092474;28;20245;-74
2023/06/12 12:31:49;;;;;;;1.50;1.08;;;32.70;74.00;35.80;101367.00;;;;5081146;28;20204;-74
2023/06/12 12:34:35;;;;;;;1.95;1.85;;;32.60;74.00;34.50;101371.00;;;;5053551;28;20678;-73
2023/06/12 12:37:32;;;;;;;1.23;0.95;;;31.90;74.60;34.90;101360.00;;;;5076385;28;20180;-73
2023/06/12 12:40:09;;;;;;;3.30;2.33;;;31.90;75.80;34.10;101332.00;;;;5076151;28;20189;-73
2023/06/12 12:42:45;;;;;;;2.33;2.03;;;31.50;75.80;34.20;101367.00;;;;5097886;28;20180;-74
2023/06/12 12:45:19;;;;;;;1.77;1.60;;;31.40;74.50;34.10;101366.00;;;;5088443;28;20184;-73
2023/06/12 12:47:54;;;;;;;0.65;0.65;;;31.20;74.90;34.60;101352.00;;;;5066994;28;20177;-73
2023/06/12 12:50:43;;;;;;;0.20;0.20;;;31.10;74.80;35.30;101326.00;;;;5096330;28;20185;-74
2023/06/12 12:53:29;;;;;;;0.10;0.10;;;31.50;74.40;35.20;101357.00;;;;5066683;28;20572;-74
2023/06/12 12:56:01;;;;;;;2.55;2.00;;;31.70;73.60;34.80;101355.00;;;;5097313;28;20184;-74
2023/06/12 12:58:43;;;;;;;1.55;0.57;;;31.90;72.30;34.70;101318.00;;;;5102148;28;20212;-74
2023/06/12 13:01:11;;;;;;;1.70;1.60;;;31.40;73.30;35.20;101339.00;;;;5086482;28;20185;-73
2023/06/12 13:03:59;;;;;;;0.10;0.10;;;31.50;74.80;35.40;101332.00;;;;5085409;28;20200;-70
2023/06/12 13:06:28;;;;;;;0.55;0.55;;;31.60;75.60;35.40;101343.00;;;;5086411;28;20271;-71
2023/06/12 13:09:16;;;;;;;0.40;0.40;;;32.00;73.40;35.50;101339.00;;;;5092454;28;20184;-70
2023/06/12 13:11:42;;;;;;;0.30;0.30;;;32.10;73.10;35.30;101328.00;;;;5096259;28;20201;-72
2023/06/12 13:14:11;;;;;;;0.30;0.30;;;32.00;71.60;35.50;101335.00;;;;5099813;28;20201;-72
2023/06/12 13:16:43;;;;;;;0.68;0.68;;;32.00;71.90;37.00;101324.00;;;;5089664;28;20180;-72
2023/06/12 13:19:09;;;;;;;0.20;0.20;;;32.50;71.80;35.80;101301.00;;;;5090323;28;20172;-73
2023/06/12 13:21:56;;;;;;;0.20;0.20;;;32.80;72.30;35.40;101335.00;;;;5104086;28;20180;-72
2023/06/12 13:24:33;;;;;;;1.75;1.65;;;32.30;70.40;34.20;101337.00;;;;5062369;28;20193;-71
2023/06/12 13:27:00;;;;;;;3.80;2.35;;;31.80;72.30;35.10;101332.00;;;;5099916;28;20185;-71
2023/06/12 13:29:47;;;;;;;0.38;0.38;;;31.70;72.80;35.60;101331.00;;;;5080697;28;20665;-72
2023/06/12 13:32:38;;;;;;;2.00;1.80;;;31.80;73.30;35.70;101319.00;;;;5076214;28;20253;-72
2023/06/12 13:35:05;;;;;;;0.10;0.10;;;31.90;71.70;34.90;101296.00;;;;5080538;28;20798;-72
2023/06/12 13:37:47;;;;;;;1.73;1.38;;;31.60;73.10;35.40;101317.00;;;;5104563;28;20172;-72
2023/06/12 13:40:24;;;;;;;0.40;0.40;;;32.00;73.80;34.70;101331.00;;;;5080031;28;20183;-72
2023/06/12 13:42:54;;;;;;;0.88;0.88;;;31.70;72.40;34.20;101328.00;;;;5078841;28;20247;-71
2023/06/12 13:45:33;;;;;;;0.10;0.10;;;31.50;71.70;35.40;101305.00;;;;5074904;28;20268;-71
2023/06/12 13:47:59;;;;;;;0.10;0.10;;;31.60;72.10;35.10;101307.00;;;;5075852;28;20192;-71
2023/06/12 13:50:29;;;;;;;1.67;1.35;;;31.50;73.00;35.80;101296.00;;;;5089938;28;20183;-71
2023/06/12 13:53:07;;;;;;;0.77;0.77;;;31.90;72.70;34.80;101327.00;;;;5073591;28;20669;-71
2023/06/12 13:55:39;;;;;;;0.63;0.63;;;31.90;70.30;35.80;101322.00;;;;5108752;28;20196;-72
2023/06/12 13:58:12;;;;;;;0.75;0.75;;;31.90;72.00;35.20;101312.00;;;;5091756;28;20176;-71
2023/06/12 14:00:40;;;;;;;1.55;0.63;;;31.70;71.50;36.30;101305.00;;;;5076295;28;20271;-72
2023/06/12 14:03:09;;;;;;;0.10;0.10;;;32.10;71.10;35.40;101273.00;;;;5082116;28;20193;-72
2023/06/12 14:05:41;;;;;;;2.63;1.98;;;31.90;71.90;34.10;101314.00;;;;5102985;28;20207;-72
2023/06/12 14:08:25;;;;;;;3.42;0.43;;;31.80;71.40;34.60;101306.00;;;;5090771;28;20183;-71
2023/06/12 14:10:56;;;;;;;0.60;0.50;;;31.60;71.20;34.40;101276.00;;;;5072088;28;20481;-71
2023/06/12 14:13:21;;;;;;;0.85;0.43;;;31.30;71.80;33.90;101293.00;;;;5085154;28;20599;-71
2023/06/12 14:16:00;;;;;;;2.08;1.42;;;31.20;73.40;33.40;101313.00;;;;5089644;28;20673;-71
2023/06/12 14:18:39;;;;;;;0.50;0.50;;;30.80;74.50;33.80;101316.00;;;;5091755;28;20214;-71
2023/06/12 14:21:20;;;;;;;0.90;0.90;;;30.60;74.50;33.30;101318.00;;;;5081992;28;20558;-72
2023/06/12 14:23:52;;;;;;;0.20;0.20;;;30.50;73.70;34.20;101304.00;;;;5090861;28;20208;-71
2023/06/12 14:26:18;;;;;;;0.52;0.52;;;30.60;73.90;34.30;101289.00;;;;5093522;28;20192;-72
2023/06/12 14:28:44;;;;;;;1.88;1.58;;;30.80;73.90;33.30;101282.00;;;;5078491;28;20192;-72
2023/06/12 14:31:11;;;;;;;4.22;1.75;;;30.60;73.90;34.30;101269.00;;;;5065057;28;20208;-72
2023/06/12 14:33:43;;;;;;;1.90;1.70;;;30.70;72.80;33.70;101255.00;;;;5095241;28;20197;-73
2023/06/12 14:36:15;;;;;;;0.90;0.88;;;30.70;71.40;34.60;101292.00;;;;5079053;28;20301;-69
2023/06/12 14:38:58;;;;;;;0.73;0.73;;;30.90;71.50;35.80;101278.00;;;;5078482;28;20230;-71
2023/06/12 14:41:27;;;;;;;0.10;0.10;;;31.40;70.20;35.30;101280.00;;;;5083526;28;20211;-73
2023/06/12 14:44:03;;;;;;;0.30;0.25;;;31.50;71.90;35.50;101280.00;;;;5088832;28;20187;-69
2023/06/12 14:46:43;;;;;;;1.38;1.10;;;31.60;71.40;33.80;101284.00;;;;5099579;28;20172;-70
2023/06/12 14:49:11;;;;;;;1.73;1.33;;;31.10;71.70;34.10;101285.00;;;;5083943;28;20191;-70
2023/06/12 14:51:37;;;;;;;2.55;1.65;;;31.10;70.30;34.00;101258.00;;;;5085662;28;20207;-70
2023/06/12 14:54:06;;;;;;;1.17;0.38;;;31.10;69.30;34.60;101273.00;;;;5083593;28;20183;-70
2023/06/12 14:56:32;;;;;;;0.35;0.35;;;31.10;67.90;34.20;101267.00;;;;5083391;28;20195;-70
2023/06/12 14:59:06;;;;;;;0.57;0.57;;;31.10;68.50;34.40;101264.00;;;;5100805;28;20642;-70
2023/06/12 15:01:34;;;;;;;0.43;0.38;;;31.10;69.90;34.50;101277.00;;;;5081334;28;20200;-70
2023/06/12 15:04:30;;;;;;;0.70;0.70;;;31.10;71.10;34.20;101268.00;;;;5082370;28;20219;-70
2023/06/12 15:06:58;;;;;;;0.10;0.10;;;30.90;71.40;34.70;101272.00;;;;5081381;28;20180;-70
2023/06/12 15:09:39;;;;;;;1.30;1.20;;;30.90;72.10;34.40;101268.00;;;;5080780;28;20272;-70
2023/06/12 15:12:31;;;;;;;1.27;1.27;;;31.20;71.50;34.50;101235.00;;;;5066767;28;20220;-70
2023/06/12 15:15:00;;;;;;;0.80;0.80;;;31.10;71.60;32.70;101273.00;;;;5082556;28;20177;-70
2023/06/12 15:17:26;;;;;;;3.65;2.42;;;30.60;70.70;32.40;101286.00;;;;5080920;28;20271;-70
2023/06/12 15:19:56;;;;;;;0.30;0.30;;;30.40;69.50;33.50;101228.00;;;;5076865;28;20238;-71
2023/06/12 15:22:52;;;;;;;0.22;0.22;;;30.30;69.70;35.20;101265.00;;;;5087005;28;20275;-71
2023/06/12 15:25:28;;;;;;;0.10;0.10;;;30.80;71.70;35.60;101255.00;;;;5086629;28;20234;-71
2023/06/12 15:28:22;;;;;;;0.63;0.20;;;31.20;71.70;34.20;101266.00;;;;5085383;28;20192;-72
2023/06/12 15:30:48;;;;;;;1.13;1.13;;;31.00;71.60;34.80;101256.00;;;;5106203;28;20179;-72
2023/06/12 15:33:37;;;;;;;0.82;0.82;;;31.30;71.40;33.90;101269.00;;;;5077066;28;20636;-72
2023/06/12 15:36:14;;;;;;;0.40;0.40;;;31.10;70.80;34.10;101260.00;;;;5088368;28;20208;-71
2023/06/12 15:38:47;;;;;;;2.17;2.05;;;30.80;70.20;33.50;101255.00;;;;5088239;28;20199;-71
2023/06/12 15:41:38;;;;;;;0.75;0.75;;;30.70;71.40;33.60;101273.00;;;;5078585;28;20279;-72
2023/06/12 15:44:27;;;;;;;1.48;1.27;;;30.40;72.30;34.00;101262.00;;;;5084691;28;20685;-71
2023/06/12 15:46:52;;;;;;;1.50;1.40;;;30.70;71.50;32.90;101257.00;;;;5087387;28;20669;-72
2023/06/12 15:49:18;;;;;;;0.20;0.20;;;30.50;71.40;33.90;101247.00;;;;5084603;28;20185;-71
2023/06/12 15:51:44;;;;;;;0.77;0.77;;;30.40;71.00;34.30;101252.00;;;;5108441;28;20679;-71
2023/06/12 15:54:16;;;;;;;1.05;1.05;;;30.50;70.80;35.20;101250.00;;;;5091441;28;20176;-72
2023/06/12 15:56:47;;;;;;;0.13;0.13;;;30.90;71.70;35.00;101249.00;;;;5089441;28;20188;-72
2023/06/12 15:59:19;;;;;;;1.90;0.38;;;31.20;70.90;34.90;101238.00;;;;5086047;28;20192;-71
2023/06/12 16:01:57;;;;;;;1.40;1.30;;;31.40;70.40;34.10;101214.00;;;;5083503;28;20184;-71
2023/06/12 16:04:28;;;;;;;2.28;2.17;;;31.30;71.30;33.30;101240.00;;;;5081270;28;20177;-71
2023/06/12 16:06:55;;;;;;;0.28;0.28;;;30.80;70.90;34.20;101250.00;;;;5082153;28;20543;-71
2023/06/12 16:09:24;;;;;;;0.28;0.28;;;30.80;71.30;34.10;101236.00;;;;5086223;28;20185;-72
2023/06/12 16:11:52;;;;;;;1.17;0.43;;;30.80;69.70;34.90;101224.00;;;;5079171;28;20235;-72
2023/06/12 16:14:18;;;;;;;37.92;3.78;;;31.00;69.50;34.30;101231.00;;;;5103386;28;20184;-71
2023/06/12 16:17:02;;;;;;;0.25;0.25;;;30.90;70.90;34.50;101229.00;;;;5097500;28;20196;-72
2023/06/12 16:19:28;;;;;;;0.20;0.20;;;31.00;71.70;34.80;101218.00;;;;5074025;28;20180;-72
2023/06/12 16:22:02;;;;;;;0.60;0.60;;;31.00;69.90;35.60;101182.00;;;;5095258;28;20245;-72
2023/06/12 16:24:29;;;;;;;0.63;0.63;;;31.30;71.10;34.80;101197.00;;;;5078965;28;20184;-72
2023/06/12 16:26:57;;;;;;;0.50;0.50;;;31.20;71.90;35.70;101223.00;;;;5086367;28;20180;-72
2023/06/12 16:29:23;;;;;;;0.55;0.55;;;31.50;71.50;35.10;101216.00;;;;5097697;28;20188;-71
2023/06/12 16:31:49;;;;;;;0.55;0.55;;;31.30;69.30;33.70;101216.00;;;;5069595;28;20760;-72
2023/06/12 16:34:18;;;;;;;0.32;0.32;;;30.80;68.20;33.30;101205.00;;;;5076346;28;20200;-71
2023/06/12 16:36:55;;;;;;;0.50;0.50;;;30.60;68.70;33.70;101223.00;;;;5083351;28;20185;-72
2023/06/12 16:39:24;;;;;;;0.47;0.47;;;30.50;67.70;33.80;101200.00;;;;5076949;28;20185;-71
2023/06/12 16:41:53;;;;;;;1.17;0.73;;;30.60;67.10;34.10;101199.00;;;;5086203;28;20184;-72
2023/06/12 16:44:39;;;;;;;0.47;0.47;;;30.60;67.40;33.80;101206.00;;;;5067333;28;20184;-68
2023/06/12 16:47:23;;;;;;;1.27;1.17;;;30.50;69.90;33.60;101202.00;;;;5101529;28;20408;-72
2023/06/12 16:49:53;;;;;;;0.38;0.38;;;30.50;69.50;34.30;101200.00;;;;5084205;28;20271;-72
2023/06/12 16:52:19;;;;;;;0.88;0.88;;;30.60;69.90;33.70;101211.00;;;;5079680;28;20206;-72
2023/06/12 16:54:54;;;;;;;0.65;0.65;;;30.50;69.60;33.80;101204.00;;;;5103974;28;20172;-72
2023/06/12 16:57:20;;;;;;;0.10;0.10;;;30.40;70.00;34.00;101209.00;;;;5088741;28;20183;-72
2023/06/12 16:59:55;;;;;;;0.55;0.55;;;30.40;70.40;33.80;101203.00;;;;5082237;28;20236;-72
2023/06/12 17:02:41;;;;;;;1.73;1.58;;;30.40;70.20;35.30;101196.00;;;;5076328;28;20635;-72
2023/06/12 17:05:26;;;;;;;2.08;0.40;;;30.90;70.90;34.70;101198.00;;;;5081901;28;20185;-72
2023/06/12 17:07:59;;;;;;;0.30;0.30;;;31.10;70.80;33.80;101195.00;;;;5077922;28;20179;-73
2023/06/12 17:10:25;;;;;;;0.30;0.30;;;30.70;69.70;33.50;101204.00;;;;5096089;28;20272;-72
2023/06/12 17:12:51;;;;;;;1.00;0.95;;;30.40;67.80;32.50;101213.00;;;;5079148;28;20287;-73
2023/06/12 17:15:17;;;;;;;0.93;0.60;;;30.00;67.20;34.30;101198.00;;;;5082445;28;20180;-72
2023/06/12 17:17:43;;;;;;;0.45;0.45;;;30.30;66.80;34.50;101185.00;;;;5100178;28;20199;-72
2023/06/12 17:20:27;;;;;;;0.10;0.10;;;30.50;67.00;34.30;101181.00;;;;5089371;28;20195;-72
2023/06/12 17:23:12;;;;;;;0.90;0.75;;;30.60;68.10;33.20;101199.00;;;;5084147;28;20639;-72
2023/06/12 17:25:40;;;;;;;0.47;0.47;;;30.40;69.10;33.80;101193.00;;;;5075639;28;20270;-73
2023/06/12 17:28:08;;;;;;;0.10;0.10;;;30.30;67.30;34.80;101184.00;;;;5079745;28;20184;-72
2023/06/12 17:30:39;;;;;;;0.10;0.10;;;30.50;67.70;35.20;101173.00;;;;5088584;28;20209;-72
2023/06/12 17:33:06;;;;;;;0.10;0.10;;;30.80;67.20;35.00;101180.00;;;;5070780;28;20218;-72
2023/06/12 17:35:37;;;;;;;0.70;0.70;;;30.80;68.50;34.90;101172.00;;;;5093220;28;20257;-73
2023/06/12 17:38:48;;;;;;;0.17;0.17;;;30.90;69.10;34.90;101174.00;;;;5091874;28;20188;-67
2023/06/12 17:41:57;;;;;;;0.60;0.60;;;30.80;68.10;34.80;101178.00;;;;5099932;28;20571;-70
2023/06/12 17:44:27;;;;;;;0.10;0.10;;;30.70;69.20;35.30;101176.00;;;;5095635;28;20196;-70
2023/06/12 17:46:59;;;;;;;0.10;0.10;;;30.90;69.20;33.50;101173.00;;;;5084707;28;20244;-69
2023/06/12 17:49:42;;;;;;;0.70;0.50;;;30.40;69.80;34.20;101181.00;;;;5080479;28;20192;-69
2023/06/12 17:52:49;;;;;;;0.70;0.70;;;30.50;70.90;33.20;101160.00;;;;5075018;28;20197;-69
2023/06/12 17:56:01;;;;;;;0.20;0.20;;;30.30;70.90;34.40;101172.00;;;;5086464;28;20189;-69
2023/06/12 17:58:52;;;;;;;0.55;0.55;;;30.30;72.20;33.60;101181.00;;;;5081341;28;20548;-69
2023/06/12 18:01:19;;;;;;;0.30;0.30;;;30.30;71.30;33.60;101174.00;;;;5084341;28;20211;-69
2023/06/12 18:04:02;;;;;;;0.10;0.10;;;30.20;71.10;34.50;101136.00;;;;5083992;28;20695;-69
2023/06/12 18:06:54;;;;;;;0.43;0.43;;;30.30;72.80;33.90;101166.00;;;;5084321;28;20207;-69
2023/06/12 18:09:58;;;;;;;0.10;0.10;;;30.30;71.60;33.50;101174.00;;;;5101189;28;20711;-69
2023/06/12 18:13:07;;;;;;;0.10;0.10;;;30.30;72.80;33.00;101173.00;;;;5064114;28;20260;-69
2023/06/12 18:16:08;;;;;;;0.10;0.10;;;29.90;72.60;33.80;101168.00;;;;5070227;28;20199;-69
2023/06/12 18:19:09;;;;;;;0.10;0.10;;;29.90;72.50;34.00;101164.00;;;;5102469;28;20192;-69
2023/06/12 18:22:13;;;;;;;0.43;0.43;;;30.40;73.30;34.40;101137.00;;;;5081945;28;20188;-69
2023/06/12 18:25:16;;;;;;;2.08;0.82;;;30.50;73.20;33.70;101169.00;;;;5067378;28;20538;-69
2023/06/12 18:28:21;;;;;;;2.00;1.77;;;30.40;72.80;33.30;101175.00;;;;5091724;28;20335;-69
2023/06/12 18:31:22;;;;;;;0.20;0.20;;;30.40;73.00;33.60;101166.00;;;;5082425;28;20194;-69
2023/06/12 18:34:29;;;;;;;1.15;0.82;;;30.10;74.70;34.30;101169.00;;;;5082830;28;20279;-69
2023/06/12 18:37:06;;;;;;;0.28;0.28;;;30.30;75.30;33.80;101164.00;;;;5082138;28;20267;-69
2023/06/12 18:40:13;;;;;;;0.47;0.47;;;30.30;74.40;33.70;101168.00;;;;5083794;28;20184;-69
2023/06/12 18:43:12;;;;;;;0.63;0.63;;;30.20;75.40;34.00;101177.00;;;;5086987;28;20529;-69
2023/06/12 18:45:42;;;;;;;1.17;1.17;;;30.10;76.00;33.90;101177.00;;;;5083052;28;20185;-68